Time;durP1;ratioP1;P1;durP2;ratioP2;P2;SDS_P1;SDS_P2;PMS_P1;PMS_P2;Temp;Humidity;BMP_temperature;BMP_pressure;BME280_temperature;BME280_humidity;BME280_pressure;Samples;Min_cycle;Max_cycle;Signal;HPM_P1;HPM_P2
2022/06/19 00:02:09;;;;;;;0.30;0.30;;;;;;;13.58;67.65;98865.59;4737914;30;20058;-91
2022/06/19 00:04:36;;;;;;;0.30;0.30;;;;;;;13.58;68.00;98873.72;4737923;30;20088;-88
2022/06/19 00:07:09;;;;;;;0.30;0.30;;;;;;;13.58;67.50;98854.75;4736170;30;20053;-89
2022/06/19 00:09:36;;;;;;;0.30;0.30;;;;;;;13.56;67.89;98856.91;4739911;30;20064;-89
2022/06/19 00:12:04;;;;;;;0.30;0.30;;;;;;;13.56;67.92;98854.19;4738572;30;20079;-89
2022/06/19 00:14:33;;;;;;;0.30;0.30;;;;;;;13.55;67.90;98845.25;4737138;30;20094;-89
2022/06/19 00:17:04;;;;;;;0.30;0.30;;;;;;;13.56;67.91;98843.34;4749641;30;20095;-89
2022/06/19 00:19:31;;;;;;;0.30;0.30;;;;;;;13.56;67.97;98849.56;4735852;30;20064;-89
2022/06/19 00:21:58;;;;;;;0.30;0.30;;;;;;;13.59;68.05;98845.50;4735726;30;20420;-89
2022/06/19 00:24:26;;;;;;;0.40;0.40;;;;;;;13.61;68.09;98837.94;4750496;30;20056;-89
2022/06/19 00:26:53;;;;;;;0.30;0.30;;;;;;;13.61;68.09;98835.22;4735932;30;20056;-90
2022/06/19 00:29:20;;;;;;;0.30;0.30;;;;;;;13.65;67.98;98833.63;4735198;30;20079;-89
2022/06/19 00:31:50;;;;;;;0.30;0.30;;;;;;;13.68;68.03;98826.84;4740307;30;20116;-90
2022/06/19 00:34:17;;;;;;;0.30;0.30;;;;;;;13.65;67.98;98826.28;4741515;30;20052;-90
2022/06/19 00:36:49;;;;;;;0.30;0.30;;;;;;;13.63;67.76;98825.72;4739484;30;20431;-89
2022/06/19 00:39:18;;;;;;;0.30;0.30;;;;;;;13.62;67.84;98834.13;4734263;30;20155;-89
2022/06/19 00:41:46;;;;;;;0.30;0.30;;;;;;;13.56;67.85;98827.06;4734271;30;20056;-89
2022/06/19 00:44:14;;;;;;;0.30;0.30;;;;;;;13.54;67.95;98826.53;4734513;30;20053;-90
2022/06/19 00:46:59;;;;;;;0.30;0.30;;;;;;;13.51;68.13;98827.06;4738384;30;20052;-90
2022/06/19 00:49:28;;;;;;;0.30;0.30;;;;;;;13.48;68.12;98833.03;4740210;30;20106;-89
2022/06/19 00:52:17;;;;;;;0.30;0.30;;;;;;;13.45;68.23;98828.97;4740313;30;20110;-89
2022/06/19 00:54:51;;;;;;;0.30;0.30;;;;;;;13.42;68.41;98824.88;4735503;30;20429;-88
2022/06/19 00:57:22;;;;;;;0.30;0.30;;;;;;;13.40;68.57;98818.91;4734317;30;20132;-89
2022/06/19 00:59:59;;;;;;;0.30;0.30;;;;;;;13.36;68.41;98804.25;4733183;30;20060;-90
2022/06/19 01:02:27;;;;;;;0.30;0.30;;;;;;;13.38;68.50;98815.66;4688295;30;1421037;-90
2022/06/19 01:04:55;;;;;;;0.30;0.30;;;;;;;13.42;68.47;98815.94;4734986;30;20061;-90
2022/06/19 01:07:23;;;;;;;0.30;0.30;;;;;;;13.46;68.42;98816.22;4719584;30;20158;-90
2022/06/19 01:09:51;;;;;;;0.30;0.30;;;;;;;13.50;68.51;98817.31;4735327;30;20471;-90
2022/06/19 01:12:19;;;;;;;0.30;0.30;;;;;;;13.52;68.23;98807.00;4734761;30;20103;-90
2022/06/19 01:14:47;;;;;;;0.30;0.30;;;;;;;13.55;68.61;98807.28;4734099;30;20067;-90
2022/06/19 01:17:16;;;;;;;0.30;0.30;;;;;;;13.55;68.42;98803.78;4733493;30;20479;-90
2022/06/19 01:19:44;;;;;;;0.30;0.30;;;;;;;13.58;68.08;98803.22;4733138;30;20106;-90
2022/06/19 01:22:30;;;;;;;0.30;0.30;;;;;;;13.58;67.88;98800.50;4734634;30;20052;-90
2022/06/19 01:25:15;;;;;;;0.30;0.30;;;;;;;13.63;68.03;98803.22;4719197;30;20136;-89
2022/06/19 01:30:46;;;;;;;0.30;0.30;;;;;;;13.70;67.68;98798.38;4734419;30;20118;-89
2022/06/19 01:33:18;;;;;;;0.40;0.40;;;;;;;13.70;67.48;98801.06;4733061;30;20075;-89
2022/06/19 01:35:48;;;;;;;0.30;0.30;;;;;;;13.74;67.47;98798.63;4735280;30;20151;-89
2022/06/19 01:38:18;;;;;;;0.30;0.30;;;;;;;13.77;67.44;98790.75;4733884;30;20110;-90
2022/06/19 01:40:48;;;;;;;0.30;0.30;;;;;;;13.82;67.43;98792.66;4735243;30;20057;-90
2022/06/19 01:43:15;;;;;;;0.30;0.30;;;;;;;13.86;67.23;98799.19;4736801;30;20075;-90
2022/06/19 01:45:52;;;;;;;0.30;0.30;;;;;;;13.91;67.17;98803.81;4736884;30;20052;-90
2022/06/19 01:48:21;;;;;;;0.38;0.38;;;;;;;13.93;67.10;98801.63;4736602;30;20057;-89
2022/06/19 01:50:49;;;;;;;0.30;0.30;;;;;;;13.93;67.17;98799.72;4740640;30;20059;-90
2022/06/19 01:53:23;;;;;;;0.30;0.30;;;;;;;13.94;67.17;98805.97;4745426;30;20061;-91
2022/06/19 01:55:51;;;;;;;0.30;0.30;;;;;;;13.88;67.13;98797.03;4742527;30;20591;-90
2022/06/19 01:58:19;;;;;;;0.30;0.30;;;;;;;13.91;67.16;98799.19;4737279;30;20056;-90
2022/06/19 02:00:48;;;;;;;0.38;0.38;;;;;;;13.87;67.30;98781.81;4737130;30;20114;-89
2022/06/19 02:03:37;;;;;;;0.30;0.30;;;;;;;13.89;67.04;98785.06;4739756;30;20359;-89
2022/06/19 02:06:08;;;;;;;0.30;0.30;;;;;;;13.79;67.18;98775.03;4745576;30;20433;-88
2022/06/19 02:08:35;;;;;;;0.30;0.30;;;;;;;13.87;66.96;98781.81;4744303;30;20056;-89
2022/06/19 02:11:04;;;;;;;0.30;0.30;;;;;;;13.88;66.67;98781.56;4737895;30;20114;-90
2022/06/19 02:13:34;;;;;;;0.30;0.30;;;;;;;13.94;66.88;98776.13;4735803;30;20060;-90
2022/06/19 02:16:08;;;;;;;0.30;0.30;;;;;;;14.01;66.84;98785.63;4736875;30;20057;-89
2022/06/19 02:18:38;;;;;;;0.30;0.30;;;;;;;14.03;66.26;98778.03;4735906;30;20406;-89
2022/06/19 02:21:07;;;;;;;0.30;0.30;;;;;;;14.06;65.94;98774.75;4735612;30;20056;-88
2022/06/19 02:23:38;;;;;;;0.30;0.30;;;;;;;14.14;65.51;98767.97;4749694;30;20139;-89
2022/06/19 02:26:08;;;;;;;0.30;0.30;;;;;;;14.21;65.64;98767.69;4734959;30;20053;-88
2022/06/19 02:28:38;;;;;;;0.30;0.30;;;;;;;14.21;65.73;98782.06;4735835;30;20060;-89
2022/06/19 02:31:06;;;;;;;0.30;0.30;;;;;;;14.22;65.22;98772.81;4735274;30;20083;-88
2022/06/19 02:33:39;;;;;;;0.30;0.30;;;;;;;14.26;65.33;98767.69;4734645;30;20060;-88
2022/06/19 02:36:34;;;;;;;0.30;0.30;;;;;;;14.31;65.15;98768.47;4735133;30;20052;-90
2022/06/19 02:39:13;;;;;;;0.30;0.30;;;;;;;14.29;65.25;98767.94;4731344;30;20681;-88
2022/06/19 02:41:45;;;;;;;0.30;0.30;;;;;;;14.32;65.15;98772.00;4735803;30;20063;-89
2022/06/19 02:44:12;;;;;;;0.30;0.30;;;;;;;14.32;65.18;98770.09;4735647;30;20198;-89
2022/06/19 02:46:39;;;;;;;0.30;0.30;;;;;;;14.35;65.13;98765.22;4749638;30;20052;-89
2022/06/19 02:49:06;;;;;;;0.30;0.30;;;;;;;14.38;64.93;98764.66;4735866;30;20056;-88
2022/06/19 02:51:33;;;;;;;0.30;0.30;;;;;;;14.41;64.89;98753.28;4735266;30;20118;-89
2022/06/19 02:54:00;;;;;;;0.30;0.30;;;;;;;14.48;65.04;98756.47;4735630;30;20069;-87
2022/06/19 02:56:27;;;;;;;0.30;0.30;;;;;;;14.53;64.97;98753.78;4734564;30;20060;-88
2022/06/19 02:58:55;;;;;;;0.30;0.30;;;;;;;14.61;64.83;98747.81;4735520;30;20059;-88
2022/06/19 03:01:22;;;;;;;0.30;0.30;;;;;;;14.70;64.56;98748.03;4735325;30;20057;-88
2022/06/19 03:03:49;;;;;;;0.30;0.30;;;;;;;14.79;64.13;98749.09;4735302;30;20095;-89
2022/06/19 03:06:16;;;;;;;0.30;0.30;;;;;;;14.84;63.77;98745.53;4735866;30;20536;-89
2022/06/19 03:08:43;;;;;;;0.30;0.30;;;;;;;14.89;63.78;98738.16;4734367;30;20052;-89
2022/06/19 03:11:11;;;;;;;0.30;0.30;;;;;;;14.96;63.23;98751.44;4734236;30;20113;-89
2022/06/19 03:13:39;;;;;;;0.40;0.40;;;;;;;15.01;63.46;98745.97;4749295;30;20060;-88
2022/06/19 03:16:07;;;;;;;0.38;0.38;;;;;;;15.11;63.16;98735.03;4737263;30;20110;-89
2022/06/19 03:18:36;;;;;;;0.40;0.40;;;;;;;15.16;62.86;98735.00;4736478;30;20069;-87
2022/06/19 03:21:04;;;;;;;0.30;0.30;;;;;;;15.27;62.80;98733.06;4735704;30;20060;-89
2022/06/19 03:23:31;;;;;;;0.30;0.30;;;;;;;15.41;62.28;98732.44;4735185;30;20463;-88
2022/06/19 03:25:58;;;;;;;0.30;0.30;;;;;;;15.43;62.18;98722.09;4736334;30;20052;-89
2022/06/19 03:28:28;;;;;;;0.30;0.30;;;;;;;15.42;62.22;98725.88;4735784;30;20076;-88
2022/06/19 03:30:55;;;;;;;0.30;0.30;;;;;;;15.49;61.96;98716.31;4735439;30;20582;-89
2022/06/19 03:33:23;;;;;;;0.35;0.35;;;;;;;15.55;61.89;98712.47;4735304;30;20432;-87
2022/06/19 03:35:52;;;;;;;0.40;0.40;;;;;;;15.60;61.01;98707.00;4735887;30;20087;-89
2022/06/19 03:38:20;;;;;;;0.30;0.30;;;;;;;15.61;61.00;98705.06;4735620;30;20522;-89
2022/06/19 03:40:47;;;;;;;0.40;0.40;;;;;;;15.70;60.79;98708.84;4748889;30;20056;-90
2022/06/19 03:43:14;;;;;;;0.32;0.32;;;;;;;15.81;60.78;98704.94;4737885;30;20436;-88
2022/06/19 03:45:41;;;;;;;0.40;0.40;;;;;;;15.95;60.27;98710.53;4736056;30;20129;-88
2022/06/19 03:48:11;;;;;;;0.30;0.30;;;;;;;16.15;59.51;98708.69;4733936;30;20056;-89
2022/06/19 03:50:39;;;;;;;0.40;0.40;;;;;;;16.20;59.71;98704.03;4733959;30;20487;-88
2022/06/19 03:53:06;;;;;;;0.30;0.30;;;;;;;16.38;58.34;98710.63;4735355;30;20547;-89
2022/06/19 03:55:34;;;;;;;0.40;0.40;;;;;;;16.53;58.26;98700.63;4734957;30;20426;-88
2022/06/19 03:58:01;;;;;;;0.40;0.40;;;;;;;16.73;57.87;98708.56;4735354;30;20153;-87
2022/06/19 04:00:28;;;;;;;0.30;0.30;;;;;;;16.70;57.21;98703.69;4740470;30;20052;-88
2022/06/19 04:02:55;;;;;;;0.30;0.30;;;;;;;16.68;57.76;98701.28;4743302;30;20052;-88
2022/06/19 04:05:23;;;;;;;0.40;0.40;;;;;;;16.71;57.49;98688.97;4739491;30;20466;-89
2022/06/19 04:07:50;;;;;;;0.40;0.40;;;;;;;16.65;57.57;98682.75;4734752;30;20208;-88
2022/06/19 04:10:19;;;;;;;0.30;0.30;;;;;;;16.72;57.43;98697.97;4734258;30;20052;-88
2022/06/19 04:12:53;;;;;;;0.32;0.32;;;;;;;16.82;57.50;98681.50;4734801;30;20053;-88
2022/06/19 04:15:21;;;;;;;0.30;0.30;;;;;;;16.92;57.00;98677.84;4733560;30;20087;-88
2022/06/19 04:17:48;;;;;;;0.30;0.30;;;;;;;16.91;56.67;98677.00;4736235;30;20143;-88
2022/06/19 04:20:15;;;;;;;0.30;0.30;;;;;;;17.04;56.94;98670.00;4754675;30;20072;-89
2022/06/19 04:22:43;;;;;;;0.30;0.30;;;;;;;17.17;56.57;98666.56;4740769;30;20159;-90
2022/06/19 04:25:14;;;;;;;0.30;0.30;;;;;;;17.30;56.16;98673.97;4741535;30;20052;-88
2022/06/19 04:27:43;;;;;;;0.40;0.40;;;;;;;17.33;56.45;98678.03;4738207;30;20088;-88
2022/06/19 04:30:11;;;;;;;0.30;0.30;;;;;;;17.33;56.51;98672.56;4739707;30;20052;-88
2022/06/19 04:32:39;;;;;;;0.30;0.30;;;;;;;17.32;57.06;98670.97;4743568;30;20076;-90
2022/06/19 04:35:06;;;;;;;0.30;0.30;;;;;;;17.39;56.16;98678.75;4743322;30;20075;-88
2022/06/19 04:37:36;;;;;;;0.30;0.30;;;;;;;17.35;56.69;98669.56;4739802;30;20053;-90
2022/06/19 04:40:04;;;;;;;0.30;0.30;;;;;;;17.35;56.10;98673.09;4748889;30;20129;-89
2022/06/19 04:42:33;;;;;;;0.30;0.30;;;;;;;17.27;56.26;98671.06;4748161;30;20475;-89
2022/06/19 04:45:00;;;;;;;0.30;0.30;;;;;;;17.25;56.37;98665.88;4732858;30;20544;-88
2022/06/19 04:47:29;;;;;;;0.30;0.30;;;;;;;17.29;56.78;98666.91;4735043;30;20063;-91
2022/06/19 04:49:56;;;;;;;0.30;0.30;;;;;;;17.41;56.89;98663.72;4734361;30;20056;-90
2022/06/19 04:52:23;;;;;;;0.30;0.30;;;;;;;17.50;56.16;98669.31;4733924;30;20056;-88
2022/06/19 04:54:50;;;;;;;0.30;0.30;;;;;;;17.53;56.03;98657.81;4747306;30;20555;-89
2022/06/19 04:57:17;;;;;;;0.40;0.40;;;;;;;17.49;56.62;98648.59;4734234;30;20052;-89
2022/06/19 04:59:45;;;;;;;0.30;0.30;;;;;;;17.67;56.10;98652.38;4733958;30;20144;-89
2022/06/19 05:02:13;;;;;;;0.30;0.30;;;;;;;17.76;55.75;98645.13;4734183;30;20057;-88
2022/06/19 05:04:40;;;;;;;0.30;0.30;;;;;;;17.62;56.31;98642.34;4730848;30;20065;-90
2022/06/19 05:07:07;;;;;;;0.30;0.30;;;;;;;17.66;56.45;98640.66;4718204;30;20061;-89
2022/06/19 05:09:34;;;;;;;0.40;0.40;;;;;;;17.84;55.76;98641.72;4393782;30;9999749;-88
2022/06/19 05:12:02;;;;;;;0.40;0.40;;;;;;;17.96;55.45;98646.69;4745240;30;20080;-89
2022/06/19 05:14:29;;;;;;;0.40;0.40;;;;;;;18.11;55.31;98651.06;4745983;30;20057;-89
2022/06/19 05:16:56;;;;;;;0.30;0.30;;;;;;;18.31;54.40;98663.53;4742569;30;20071;-89
2022/06/19 05:19:23;;;;;;;0.30;0.30;;;;;;;18.36;53.92;98656.03;4746051;30;20114;-89
2022/06/19 05:21:51;;;;;;;0.30;0.30;;;;;;;18.30;54.65;98646.28;4737771;30;20057;-87
2022/06/19 05:24:26;;;;;;;0.30;0.30;;;;;;;18.26;54.58;98648.03;4731674;30;20130;-89
2022/06/19 05:26:54;;;;;;;0.40;0.40;;;;;;;18.34;53.77;98651.97;4716339;30;20106;-87
2022/06/19 05:29:21;;;;;;;0.30;0.30;;;;;;;18.15;54.08;98639.25;4716799;30;20064;-88
2022/06/19 05:31:48;;;;;;;0.30;0.30;;;;;;;18.23;54.38;98651.38;4745148;30;20049;-91
2022/06/19 05:34:16;;;;;;;0.30;0.30;;;;;;;18.28;54.81;98659.47;4734732;30;20063;-86
2022/06/19 05:36:43;;;;;;;0.30;0.30;;;;;;;18.34;54.41;98658.25;4732884;30;20095;-91
2022/06/19 05:39:10;;;;;;;0.35;0.35;;;;;;;18.51;53.77;98652.16;4735155;30;20057;-87
2022/06/19 05:41:39;;;;;;;0.30;0.30;;;;;;;18.63;53.10;98657.09;4735364;30;20926;-88
2022/06/19 05:44:07;;;;;;;0.30;0.30;;;;;;;18.50;53.87;98653.28;4736046;30;20513;-86
2022/06/19 05:46:34;;;;;;;0.40;0.40;;;;;;;18.59;54.09;98648.72;4745719;30;20053;-88
2022/06/19 05:49:02;;;;;;;0.40;0.40;;;;;;;18.61;53.90;98641.03;4732199;30;20052;-88
2022/06/19 05:51:30;;;;;;;0.40;0.40;;;;;;;18.86;53.68;98640.78;4749606;30;20056;-91
2022/06/19 05:53:58;;;;;;;0.32;0.32;;;;;;;18.95;53.67;98626.06;4735729;30;20057;-87
2022/06/19 05:56:30;;;;;;;0.40;0.40;;;;;;;18.96;53.51;98621.41;4736964;30;20056;-87
2022/06/19 05:58:57;;;;;;;0.30;0.30;;;;;;;18.82;53.84;98646.06;4746594;30;20049;-92
2022/06/19 06:01:33;;;;;;;0.30;0.30;;;;;;;18.78;53.52;98629.47;4749823;30;20053;-91
2022/06/19 06:04:01;;;;;;;0.40;0.40;;;;;;;18.97;53.33;98629.31;4746737;30;20057;-88
2022/06/19 06:06:31;;;;;;;0.40;0.40;;;;;;;19.15;53.33;98616.59;4748003;30;20068;-90
2022/06/19 06:09:13;;;;;;;0.40;0.40;;;;;;;19.19;53.20;98623.06;4744950;30;20112;-93
2022/06/19 06:11:41;;;;;;;0.40;0.40;;;;;;;19.30;52.95;98618.16;4760115;30;20052;-91
2022/06/19 06:14:08;;;;;;;0.40;0.40;;;;;;;19.75;51.80;98629.09;4742319;30;20130;-91
2022/06/19 06:16:40;;;;;;;0.40;0.40;;;;;;;19.75;51.38;98623.63;4736920;30;20068;-88
2022/06/19 06:19:07;;;;;;;0.40;0.40;;;;;;;19.76;52.25;98638.91;4736747;30;20061;-90
2022/06/19 06:21:35;;;;;;;0.30;0.30;;;;;;;19.67;51.71;98621.63;4718497;30;20057;-93
2022/06/19 06:24:02;;;;;;;0.30;0.30;;;;;;;19.65;51.96;98618.38;4749359;30;20069;-91
2022/06/19 06:26:30;;;;;;;0.40;0.40;;;;;;;19.52;51.61;98602.81;4730312;30;20056;-90
2022/06/19 06:28:58;;;;;;;0.30;0.30;;;;;;;19.54;52.34;98608.78;4730616;30;20049;-90
2022/06/19 06:31:26;;;;;;;0.40;0.40;;;;;;;19.71;52.46;98600.72;4719835;30;20136;-93
2022/06/19 06:33:57;;;;;;;0.40;0.40;;;;;;;19.84;52.17;98594.31;4718651;30;20107;-93
2022/06/19 06:36:25;;;;;;;0.40;0.40;;;;;;;20.00;51.56;98582.94;4732375;30;20442;-93
2022/06/19 06:38:52;;;;;;;0.40;0.40;;;;;;;19.90;51.45;98584.88;4724758;30;20059;-88
2022/06/19 06:41:20;;;;;;;0.40;0.40;;;;;;;20.00;51.26;98593.91;4749866;30;20052;-90
2022/06/19 06:43:47;;;;;;;0.30;0.30;;;;;;;19.81;51.75;98607.84;4734992;30;20061;-89
2022/06/19 06:46:20;;;;;;;0.38;0.38;;;;;;;19.64;52.27;98578.41;4749391;30;20091;-92
2022/06/19 06:48:49;;;;;;;0.30;0.30;;;;;;;19.40;53.43;98590.53;4737730;30;20049;-89
2022/06/19 06:51:19;;;;;;;0.30;0.30;;;;;;;19.24;53.42;98586.56;4737061;30;20094;-89
2022/06/19 06:53:46;;;;;;;0.30;0.30;;;;;;;19.18;54.02;98587.81;4733301;30;20606;-87
2022/06/19 06:56:14;;;;;;;0.30;0.30;;;;;;;19.07;54.18;98575.50;4734387;30;20092;-89
2022/06/19 06:58:42;;;;;;;0.30;0.30;;;;;;;18.98;54.73;98576.25;4747363;30;20122;-90
2022/06/19 07:01:13;;;;;;;0.30;0.30;;;;;;;19.18;53.98;98572.19;4735968;30;20120;-90
2022/06/19 07:03:42;;;;;;;0.30;0.30;;;;;;;19.22;54.17;98569.66;4744961;30;20071;-91
2022/06/19 07:06:10;;;;;;;0.30;0.30;;;;;;;19.38;54.03;98561.88;4756757;30;20083;-92
2022/06/19 07:08:41;;;;;;;0.30;0.30;;;;;;;19.60;53.50;98566.50;4740255;30;20124;-93
2022/06/19 07:11:14;;;;;;;0.40;0.40;;;;;;;19.71;53.24;98556.91;4758549;30;20091;-92
2022/06/19 07:13:43;;;;;;;0.30;0.30;;;;;;;19.82;53.07;98551.94;4740001;30;20065;-95
2022/06/19 07:16:10;;;;;;;0.30;0.30;;;;;;;19.82;52.73;98550.00;4735283;30;20052;-91
2022/06/19 07:18:38;;;;;;;0.30;0.30;;;;;;;19.76;52.83;98545.81;4750387;30;20136;-91
2022/06/19 07:21:05;;;;;;;0.40;0.40;;;;;;;19.88;51.43;98548.78;4734869;30;20535;-88
2022/06/19 07:23:33;;;;;;;0.40;0.40;;;;;;;20.20;50.79;98548.69;4735229;30;20079;-87
2022/06/19 07:26:26;;;;;;;0.30;0.30;;;;;;;20.23;50.19;98561.75;4735723;30;20126;-90
2022/06/19 07:28:55;;;;;;;0.30;0.30;;;;;;;20.03;50.55;98541.25;4736206;30;20087;-88
2022/06/19 07:31:31;;;;;;;0.30;0.30;;;;;;;19.78;52.05;98540.84;4735163;30;20083;-90
2022/06/19 07:33:59;;;;;;;0.30;0.30;;;;;;;19.66;52.42;98532.38;4733576;30;20231;-88
2022/06/19 07:36:26;;;;;;;0.30;0.30;;;;;;;19.60;52.40;98534.47;4734602;30;20517;-91
2022/06/19 07:38:54;;;;;;;0.30;0.30;;;;;;;19.49;52.06;98522.97;4730144;30;20596;-95
2022/06/19 07:41:21;;;;;;;0.30;0.30;;;;;;;19.63;52.35;98543.97;4717197;30;20056;-90
2022/06/19 07:43:50;;;;;;;0.30;0.30;;;;;;;19.84;51.07;98522.34;4717096;30;20062;-89
2022/06/19 07:46:19;;;;;;;0.30;0.30;;;;;;;20.12;50.46;98539.31;4715019;30;20088;-92
2022/06/19 07:51:32;;;;;;;0.30;0.30;;;;;;;20.09;50.63;98523.53;4713961;30;20106;-88
2022/06/19 07:54:00;;;;;;;0.40;0.40;;;;;;;20.23;50.29;98526.94;4713088;30;20063;-86
2022/06/19 07:56:28;;;;;;;0.40;0.40;;;;;;;20.32;49.51;98529.69;4717838;30;20815;-89
2022/06/19 07:58:55;;;;;;;0.30;0.30;;;;;;;20.27;49.85;98533.38;4731236;30;20053;-87
2022/06/19 08:01:23;;;;;;;0.30;0.30;;;;;;;20.40;49.34;98517.13;4733677;30;20417;-86
2022/06/19 08:04:10;;;;;;;0.40;0.40;;;;;;;20.60;48.97;98527.50;4733552;30;20075;-88
2022/06/19 08:06:37;;;;;;;0.40;0.40;;;;;;;20.73;48.23;98518.28;4732811;30;20056;-89
2022/06/19 08:09:04;;;;;;;0.30;0.30;;;;;;;20.99;47.48;98510.06;4731932;30;20053;-93
2022/06/19 08:11:31;;;;;;;0.30;0.30;;;;;;;20.75;48.12;98529.75;4718764;30;20057;-90
2022/06/19 08:13:59;;;;;;;0.40;0.40;;;;;;;20.62;48.60;98497.81;4721261;30;20477;-91
2022/06/19 08:16:26;;;;;;;0.30;0.30;;;;;;;20.69;48.47;98503.63;4718627;30;20057;-90
2022/06/19 08:18:53;;;;;;;0.40;0.40;;;;;;;20.82;48.93;98504.59;4728845;30;20049;-90
2022/06/19 08:21:20;;;;;;;0.40;0.40;;;;;;;20.55;49.22;98497.50;4718843;30;20052;-89
2022/06/19 08:23:47;;;;;;;0.40;0.40;;;;;;;20.76;48.49;98492.97;4731745;30;20053;-88
2022/06/19 08:26:14;;;;;;;0.50;0.50;;;;;;;21.24;48.19;98491.09;4727535;30;20429;-89
2022/06/19 08:31:31;;;;;;;0.50;0.50;;;;;;;22.12;46.45;98478.59;4724890;30;20142;-92
2022/06/19 08:33:59;;;;;;;0.50;0.50;;;;;;;22.01;46.20;98491.91;4723442;30;20053;-92
2022/06/19 08:36:26;;;;;;;0.50;0.50;;;;;;;22.13;46.26;98495.88;4729820;30;20447;-90
2022/06/19 08:38:56;;;;;;;0.50;0.50;;;;;;;22.05;46.69;98459.91;4729723;30;20138;-96
2022/06/19 08:41:39;;;;;;;0.50;0.50;;;;;;;22.75;45.04;98450.31;4736362;30;20045;-83
2022/06/19 08:47:51;;;;;;;0.50;0.50;;;;;;;23.59;42.84;98439.81;4788219;29;20092;-93
2022/06/19 08:50:31;;;;;;;0.50;0.50;;;;;;;23.67;42.73;98455.41;4786676;30;20185;-89
2022/06/19 08:53:17;;;;;;;0.50;0.50;;;;;;;23.57;43.10;98448.44;4778699;30;20054;-90
2022/06/19 08:55:56;;;;;;;0.30;0.30;;;;;;;23.55;42.98;98475.50;4781485;30;20051;-93
2022/06/19 08:58:36;;;;;;;0.50;0.50;;;;;;;23.51;43.07;98463.56;4781784;30;20048;-92
2022/06/19 09:01:09;;;;;;;0.43;0.43;;;;;;;23.38;42.53;98436.38;4786070;29;20067;-93
2022/06/19 09:07:23;;;;;;;0.50;0.50;;;;;;;23.43;42.92;98428.69;4731570;30;20071;-91
2022/06/19 09:09:53;;;;;;;0.40;0.40;;;;;;;24.26;41.66;98436.75;4743547;30;20056;-90
2022/06/19 09:12:26;;;;;;;0.60;0.60;;;;;;;25.01;40.70;98405.75;4736509;30;20188;-90
2022/06/19 09:14:56;;;;;;;0.50;0.50;;;;;;;25.78;38.95;98394.25;4737367;30;20061;-90
2022/06/19 09:17:35;;;;;;;0.50;0.50;;;;;;;26.09;38.93;98395.34;4736126;30;20067;-90
2022/06/19 09:20:44;;;;;;;0.50;0.50;;;;;;;25.62;38.79;98402.53;4721824;30;20061;-89
2022/06/19 09:23:18;;;;;;;0.30;0.30;;;;;;;25.14;39.16;98434.88;4737330;30;20480;-89
2022/06/19 09:25:54;;;;;;;0.40;0.40;;;;;;;24.69;39.97;98410.41;4737515;30;20620;-90
2022/06/19 09:28:39;;;;;;;0.30;0.30;;;;;;;24.79;39.64;98388.66;4735111;30;20065;-89
2022/06/19 09:31:13;;;;;;;0.40;0.40;;;;;;;25.14;38.84;98365.84;4733430;30;20080;-89
2022/06/19 09:33:50;;;;;;;0.30;0.30;;;;;;;24.70;40.29;98379.72;4732727;30;20550;-88
2022/06/19 09:36:23;;;;;;;0.30;0.30;;;;;;;24.20;41.00;98368.06;4736542;30;20077;-89
2022/06/19 09:39:20;;;;;;;0.30;0.30;;;;;;;24.36;41.29;98383.91;4735415;30;20049;-89
2022/06/19 09:42:01;;;;;;;0.30;0.30;;;;;;;24.16;41.31;98369.94;4735391;30;20103;-90
2022/06/19 09:44:40;;;;;;;0.40;0.40;;;;;;;24.19;41.09;98360.97;4762969;30;20098;-90
2022/06/19 09:47:32;;;;;;;0.30;0.30;;;;;;;24.41;40.43;98351.34;4767783;30;20113;-87
2022/06/19 09:50:26;;;;;;;0.57;0.57;;;;;;;25.33;38.68;98350.56;4769247;30;20139;-89
2022/06/19 09:53:28;;;;;;;0.30;0.30;;;;;;;24.58;40.20;98341.97;4753722;30;20066;-90
2022/06/19 09:56:31;;;;;;;0.30;0.30;;;;;;;24.23;40.52;98337.06;4722040;30;20064;-90
2022/06/19 09:59:34;;;;;;;0.40;0.40;;;;;;;24.96;39.08;98329.53;4736212;30;20060;-88
2022/06/19 10:07:29;;;;;;;0.30;0.30;;;;;;;25.52;37.85;98315.53;4649275;30;20503;-89
2022/06/19 10:09:58;;;;;;;;;;;;;;;25.60;38.04;98318.41;4620913;30;20146;-90
2022/06/19 10:12:32;;;;;;;0.60;0.60;;;;;;;25.32;38.56;98305.59;4648860;30;19932;-89
2022/06/19 10:15:04;;;;;;;0.70;0.70;;;;;;;25.08;38.88;98329.44;4653461;30;20476;-89
2022/06/19 10:17:49;;;;;;;0.35;0.35;;;;;;;24.50;39.95;98298.81;4653632;30;20055;-89
2022/06/19 10:20:22;;;;;;;0.30;0.30;;;;;;;24.41;40.80;98285.16;4649511;30;20069;-89
2022/06/19 10:23:25;;;;;;;0.60;0.60;;;;;;;26.32;37.51;98285.59;4649275;30;20131;-89
2022/06/19 10:26:35;;;;;;;0.50;0.50;;;;;;;26.90;36.13;98287.41;4598931;31;20159;-90
2022/06/19 10:29:13;;;;;;;0.50;0.50;;;;;;;26.80;36.63;98277.75;4551101;31;20065;-87
2022/06/19 10:32:11;;;;;;;0.43;0.43;;;;;;;26.30;37.17;98278.81;4528370;31;20058;-90
2022/06/19 10:34:55;;;;;;;0.30;0.30;;;;;;;25.67;38.57;98268.84;4535271;31;20057;-88
2022/06/19 10:37:39;;;;;;;0.50;0.50;;;;;;;26.53;37.55;98263.06;4536423;31;20065;-89
2022/06/19 10:40:37;;;;;;;0.20;0.20;;;;;;;26.19;37.83;98264.78;4566174;31;20075;-90
2022/06/19 10:43:23;;;;;;;0.50;0.50;;;;;;;25.79;38.19;98237.53;4565803;31;20539;-88
2022/06/19 10:45:58;;;;;;;0.50;0.50;;;;;;;25.78;38.32;98267.13;4571713;31;20125;-88
2022/06/19 10:48:49;;;;;;;0.50;0.50;;;;;;;26.33;37.72;98220.81;4584300;31;20064;-89
2022/06/19 10:51:20;;;;;;;0.30;0.30;;;;;;;26.12;38.25;98225.94;4600013;31;20533;-89
2022/06/19 10:54:03;;;;;;;0.40;0.40;;;;;;;26.63;37.46;98224.88;4610656;31;20155;-87
2022/06/19 10:56:50;;;;;;;0.30;0.30;;;;;;;26.16;37.35;98213.78;4613221;31;20484;-88
2022/06/19 10:59:17;;;;;;;0.30;0.30;;;;;;;25.37;39.47;98218.88;4621614;30;20058;-87
2022/06/19 11:04:57;;;;;;;0.40;0.40;;;;;;;25.44;39.15;98230.88;4645350;30;20066;-89
2022/06/19 11:07:25;;;;;;;0.40;0.40;;;;;;;25.36;40.21;98215.31;4677257;30;20062;-87
2022/06/19 11:10:07;;;;;;;0.30;0.30;;;;;;;25.33;39.93;98207.78;4663661;30;20062;-88
2022/06/19 11:12:39;;;;;;;0.40;0.40;;;;;;;25.49;39.93;98208.50;4743760;30;20536;-88
2022/06/19 11:15:35;;;;;;;0.30;0.30;;;;;;;25.47;40.46;98226.59;4753765;30;20095;-87
2022/06/19 11:18:17;;;;;;;0.22;0.22;;;;;;;24.95;40.57;98208.47;4754011;30;20066;-87
2022/06/19 11:21:11;;;;;;;0.20;0.20;;;;;;;24.19;41.92;98255.44;4756742;30;20056;-88
2022/06/19 11:23:41;;;;;;;0.30;0.30;;;;;;;24.06;42.31;98234.59;4767352;30;20582;-88
2022/06/19 11:26:14;;;;;;;0.20;0.20;;;;;;;24.08;42.37;98233.09;4767805;30;20447;-88
2022/06/19 11:29:00;;;;;;;0.20;0.20;;;;;;;24.16;42.32;98229.38;4736266;30;20121;-88
2022/06/19 11:31:29;;;;;;;0.30;0.30;;;;;;;24.04;42.70;98257.00;4765695;30;20086;-87
2022/06/19 11:37:31;;;;;;;0.20;0.20;;;;;;;23.28;44.66;98240.22;4763506;30;20056;-87
2022/06/19 11:39:58;;;;;;;0.20;0.20;;;;;;;23.05;45.14;98233.63;4764906;30;20058;-85
2022/06/19 11:42:37;;;;;;;0.20;0.20;;;;;;;22.90;45.16;98241.38;4751760;30;20125;-88
2022/06/19 11:45:14;;;;;;;0.20;0.20;;;;;;;22.59;46.46;98247.47;4752590;30;20146;-88
2022/06/19 11:47:46;;;;;;;0.20;0.20;;;;;;;22.53;46.63;98245.25;4766399;30;20164;-88
2022/06/19 11:50:29;;;;;;;0.20;0.20;;;;;;;22.45;47.23;98241.47;4753137;30;20084;-88
2022/06/19 11:53:23;;;;;;;0.20;0.20;;;;;;;22.50;47.39;98255.78;4765811;30;20067;-88
2022/06/19 11:55:52;;;;;;;0.20;0.20;;;;;;;22.54;47.61;98296.38;4751568;30;20147;-87
2022/06/19 11:58:29;;;;;;;0.20;0.20;;;;;;;22.58;47.39;98262.34;4751247;30;20142;-87
2022/06/19 12:01:08;;;;;;;0.20;0.20;;;;;;;22.67;47.58;98249.28;4764246;30;20056;-88
2022/06/19 12:03:55;;;;;;;0.20;0.20;;;;;;;22.73;47.42;98256.16;4764539;30;20094;-87
2022/06/19 12:06:45;;;;;;;0.30;0.30;;;;;;;23.33;46.45;98237.22;4751558;30;20401;-88
2022/06/19 12:09:18;;;;;;;0.30;0.30;;;;;;;23.84;45.16;98228.50;4751483;30;20052;-88
2022/06/19 12:11:54;;;;;;;0.22;0.22;;;;;;;23.97;44.50;98202.47;4767175;30;20594;-88
2022/06/19 12:14:57;;;;;;;0.30;0.30;;;;;;;24.05;44.47;98216.44;4765912;30;20048;-88
2022/06/19 12:17:30;;;;;;;0.40;0.40;;;;;;;24.87;43.41;98199.22;4753928;30;20091;-88
2022/06/19 12:20:03;;;;;;;0.30;0.30;;;;;;;25.13;42.55;98214.41;4752122;30;20484;-88
2022/06/19 12:22:56;;;;;;;0.20;0.20;;;;;;;24.93;43.59;98216.31;4751685;30;20150;-88
2022/06/19 12:25:35;;;;;;;0.30;0.30;;;;;;;24.50;43.74;98210.56;4751970;30;20056;-87
2022/06/19 12:28:31;;;;;;;0.25;0.25;;;;;;;25.30;42.55;98180.88;4768407;30;20135;-88